Time;durP1;ratioP1;P1;durP2;ratioP2;P2;SDS_P1;SDS_P2;PMS_P1;PMS_P2;Temp;Humidity;BMP_temperature;BMP_pressure;BME280_temperature;BME280_humidity;BME280_pressure;Samples;Min_cycle;Max_cycle;Signal;HPM_P1;HPM_P2
2023/02/26 00:00:19;;;;;;;17.43;8.63;;;;;;;0.12;100.00;101732.84;4989707;28;20199;-70
2023/02/26 00:02:46;;;;;;;30.47;13.63;;;;;;;0.08;100.00;101737.56;4988015;28;20219;-69
2023/02/26 00:05:13;;;;;;;11.07;5.40;;;;;;;0.11;100.00;101741.16;4984636;28;20611;-70
2023/02/26 00:07:38;;;;;;;4.20;1.50;;;;;;;0.10;100.00;101745.31;4971855;28;20269;-68
2023/02/26 00:10:07;;;;;;;5.53;1.73;;;;;;;0.19;100.00;101748.53;4989331;28;20701;-69
2023/02/26 00:12:33;;;;;;;7.13;3.20;;;;;;;0.22;100.00;101750.38;4970164;28;20248;-70
2023/02/26 00:14:59;;;;;;;8.73;4.03;;;;;;;0.22;100.00;101753.78;4988257;28;20192;-70
2023/02/26 00:17:31;;;;;;;16.83;6.30;;;;;;;0.23;100.00;101758.06;4986990;28;20665;-70
2023/02/26 00:19:57;;;;;;;8.53;2.37;;;;;;;0.25;100.00;101758.19;4985274;28;20657;-70
2023/02/26 00:22:23;;;;;;;7.33;1.50;;;;;;;0.26;100.00;101761.59;4988257;28;20298;-70
2023/02/26 00:24:48;;;;;;;5.70;1.27;;;;;;;0.27;100.00;101759.16;4986403;28;20306;-69
2023/02/26 00:27:13;;;;;;;2.77;1.20;;;;;;;0.28;100.00;101758.41;4985682;28;20192;-69
2023/02/26 00:29:39;;;;;;;4.70;1.53;;;;;;;0.31;100.00;101760.28;4982759;28;20206;-71
2023/02/26 00:32:06;;;;;;;3.57;1.33;;;;;;;0.30;100.00;101756.88;4984033;28;20226;-70
2023/02/26 00:34:32;;;;;;;6.13;1.50;;;;;;;0.30;100.00;101764.44;4986505;28;20208;-70
2023/02/26 00:37:16;;;;;;;7.90;2.50;;;;;;;0.26;100.00;101767.47;4984700;28;20233;-69
2023/02/26 00:39:44;;;;;;;4.27;1.50;;;;;;;0.24;100.00;101772.41;4984998;28;20210;-69
2023/02/26 00:42:11;;;;;;;4.43;1.60;;;;;;;0.21;100.00;101771.28;4983193;28;20235;-69
2023/02/26 00:44:37;;;;;;;9.33;1.40;;;;;;;0.17;100.00;101780.28;4985633;28;20211;-69
2023/02/26 00:47:22;;;;;;;6.10;1.73;;;;;;;0.14;100.00;101789.25;4984238;28;20537;-70
2023/02/26 00:49:47;;;;;;;2.63;1.47;;;;;;;0.10;100.00;101789.75;4987683;28;20203;-69
2023/02/26 00:52:27;;;;;;;2.97;1.20;;;;;;;0.03;100.00;101797.59;4984136;28;20208;-67
2023/02/26 00:54:53;;;;;;;4.00;1.40;;;;;;;-0.01;100.00;101793.09;4985372;28;20661;-69
2023/02/26 00:57:18;;;;;;;3.10;1.10;;;;;;;-0.08;100.00;101804.31;4987170;28;20188;-70
2023/02/26 00:59:44;;;;;;;4.67;1.60;;;;;;;-0.10;100.00;101810.91;4986681;28;20194;-70
2023/02/26 01:02:09;;;;;;;3.93;1.30;;;;;;;-0.15;100.00;101801.22;4973013;28;20633;-69
2023/02/26 01:04:35;;;;;;;5.73;1.80;;;;;;;-0.17;100.00;101803.63;4985174;28;20199;-69
2023/02/26 01:07:01;;;;;;;3.73;1.50;;;;;;;-0.25;100.00;101806.31;4978371;28;20242;-69
2023/02/26 01:09:27;;;;;;;5.50;1.43;;;;;;;-0.29;100.00;101810.25;4982252;28;20254;-69
2023/02/26 01:11:55;;;;;;;6.20;1.60;;;;;;;-0.34;100.00;101815.66;4985507;28;20215;-70
2023/02/26 01:14:21;;;;;;;6.80;1.70;;;;;;;-0.40;100.00;101811.03;4999992;28;20688;-70
2023/02/26 01:17:07;;;;;;;7.63;2.57;;;;;;;-0.44;100.00;101819.13;4983168;28;20206;-70
2023/02/26 01:19:57;;;;;;;3.47;1.50;;;;;;;-0.49;100.00;101819.50;4983838;28;20744;-69
2023/02/26 01:22:50;;;;;;;5.83;1.30;;;;;;;-0.56;100.00;101818.16;4991164;28;20215;-70
2023/02/26 01:25:27;;;;;;;4.50;1.93;;;;;;;-0.59;100.00;101817.91;4989280;28;20274;-67
2023/02/26 01:27:56;;;;;;;2.77;1.10;;;;;;;-0.60;100.00;101830.34;4991115;28;20202;-69
2023/02/26 01:30:22;;;;;;;5.43;1.50;;;;;;;-0.69;100.00;101835.53;4989627;28;20199;-69
2023/02/26 01:33:09;;;;;;;3.63;1.30;;;;;;;-0.70;100.00;101840.44;4990674;28;20218;-70
2023/02/26 01:35:46;;;;;;;2.23;1.13;;;;;;;-0.73;100.00;101836.03;4970913;28;20202;-69
2023/02/26 01:38:38;;;;;;;4.00;1.30;;;;;;;-0.75;100.00;101835.06;4985757;28;20196;-70
2023/02/26 01:41:22;;;;;;;4.73;1.17;;;;;;;-0.77;100.00;101839.06;5005555;28;20195;-69
2023/02/26 01:44:06;;;;;;;4.07;1.43;;;;;;;-0.81;100.00;101832.06;4989912;28;20828;-69
2023/02/26 01:46:44;;;;;;;3.23;1.23;;;;;;;-0.83;100.00;101838.59;4990594;28;20192;-70
2023/02/26 01:49:15;;;;;;;5.40;1.10;;;;;;;-0.82;100.00;101836.97;4990380;28;20199;-69
2023/02/26 01:51:53;;;;;;;4.47;1.83;;;;;;;-0.85;100.00;101845.16;4986696;28;20220;-69
2023/02/26 01:54:24;;;;;;;2.37;0.97;;;;;;;-0.87;100.00;101845.78;4990929;28;20219;-70
2023/02/26 01:56:57;;;;;;;3.33;1.07;;;;;;;-0.89;100.00;101852.31;4970186;28;20269;-66
2023/02/26 01:59:25;;;;;;;3.73;0.97;;;;;;;-0.93;100.00;101851.19;4998985;28;20276;-70
2023/02/26 02:01:55;;;;;;;3.37;1.23;;;;;;;-0.92;100.00;101859.63;4990171;28;20224;-69
2023/02/26 02:04:22;;;;;;;4.23;1.20;;;;;;;-0.93;100.00;101857.84;4991639;28;20662;-69
2023/02/26 02:06:48;;;;;;;3.07;0.90;;;;;;;-0.93;100.00;101862.84;4982343;28;20195;-69
2023/02/26 02:09:13;;;;;;;5.10;1.20;;;;;;;-0.94;100.00;101862.00;4990809;28;20326;-68
2023/02/26 02:11:53;;;;;;;4.10;1.10;;;;;;;-0.93;100.00;101870.38;4988448;28;20733;-70
2023/02/26 02:14:34;;;;;;;6.30;2.23;;;;;;;-0.91;100.00;101868.91;4988743;28;20184;-69
2023/02/26 02:17:23;;;;;;;3.67;1.63;;;;;;;-0.93;100.00;101875.41;4987400;28;20206;-68
2023/02/26 02:20:23;;;;;;;7.00;1.60;;;;;;;-0.91;100.00;101878.97;4989642;28;20196;-69
2023/02/26 02:23:10;;;;;;;5.63;2.00;;;;;;;-0.89;100.00;101882.44;4990174;28;20231;-69
2023/02/26 02:25:58;;;;;;;8.93;3.33;;;;;;;-0.86;100.00;101887.75;5001708;28;20211;-66
2023/02/26 02:28:38;;;;;;;6.87;2.10;;;;;;;-0.88;100.00;101890.13;4988998;28;20199;-69
2023/02/26 02:31:26;;;;;;;8.80;3.30;;;;;;;-0.89;100.00;101895.03;4988360;28;20246;-69
2023/02/26 02:34:16;;;;;;;3.77;1.50;;;;;;;-0.92;100.00;101900.69;4979014;28;20196;-68
2023/02/26 02:36:48;;;;;;;3.53;1.70;;;;;;;-0.94;100.00;101908.84;4984552;28;20192;-69
2023/02/26 02:39:37;;;;;;;3.37;1.63;;;;;;;-0.97;100.00;101917.00;4986231;28;20197;-69
2023/02/26 02:42:44;;;;;;;9.30;3.33;;;;;;;-0.99;100.00;101911.00;4983459;28;20269;-67
2023/02/26 02:45:22;;;;;;;8.37;3.30;;;;;;;-0.98;100.00;101914.38;4986192;28;20339;-68
2023/02/26 02:48:04;;;;;;;6.97;1.67;;;;;;;-1.00;100.00;101919.25;4998539;28;20188;-68
2023/02/26 02:50:38;;;;;;;4.83;1.97;;;;;;;-1.01;100.00;101926.72;5003600;28;20198;-70
2023/02/26 02:53:10;;;;;;;6.53;2.23;;;;;;;-1.00;100.00;101930.97;4985280;28;20290;-70
2023/02/26 02:55:47;;;;;;;2.67;1.23;;;;;;;-0.99;100.00;101931.09;4967297;28;20218;-69
2023/02/26 02:58:19;;;;;;;2.17;0.90;;;;;;;-1.00;100.00;101928.47;4987768;28;20227;-68
2023/02/26 03:00:52;;;;;;;2.90;1.07;;;;;;;-1.01;100.00;101940.13;4982807;28;20201;-69
2023/02/26 03:03:30;;;;;;;6.27;2.43;;;;;;;-1.02;100.00;101943.41;4985621;28;20815;-68
2023/02/26 03:05:55;;;;;;;4.60;1.30;;;;;;;-1.02;100.00;101948.44;4984908;28;20226;-70
2023/02/26 03:08:26;;;;;;;2.57;1.00;;;;;;;-1.04;100.00;101951.56;4989806;28;20257;-69
2023/02/26 03:10:51;;;;;;;0.70;0.60;;;;;;;-1.08;100.00;101952.97;4971415;28;20796;-68
2023/02/26 03:13:19;;;;;;;0.93;0.65;;;;;;;-1.10;100.00;101956.97;4950301;28;1105209;-70
2023/02/26 03:15:52;;;;;;;3.47;0.90;;;;;;;-1.10;100.00;101966.16;4988095;28;20234;-70
2023/02/26 03:18:49;;;;;;;3.73;1.00;;;;;;;-1.12;100.00;101976.06;4986659;28;20192;-69
2023/02/26 03:21:53;;;;;;;2.80;0.63;;;;;;;-1.15;100.00;101970.78;5004002;28;20199;-69
2023/02/26 03:25:02;;;;;;;1.73;0.60;;;;;;;-1.13;100.00;101974.31;4970720;28;20204;-68
2023/02/26 03:27:46;;;;;;;2.93;0.83;;;;;;;-1.19;100.00;101982.97;5002742;28;20195;-70
2023/02/26 03:30:22;;;;;;;5.20;0.63;;;;;;;-1.19;100.00;101991.34;4987944;28;20187;-68
2023/02/26 03:33:05;;;;;;;2.53;0.70;;;;;;;-1.24;100.00;101986.72;4964163;28;20799;-68
2023/02/26 03:35:50;;;;;;;3.30;0.70;;;;;;;-1.27;100.00;101992.38;4987421;28;20192;-69
2023/02/26 03:38:41;;;;;;;3.43;1.10;;;;;;;-1.30;100.00;101988.69;4989029;28;20195;-67
2023/02/26 03:41:17;;;;;;;5.07;1.00;;;;;;;-1.29;100.00;102000.53;4985826;28;20836;-70
2023/02/26 03:44:08;;;;;;;5.40;0.83;;;;;;;-1.30;100.00;102001.25;4972181;28;20217;-69
2023/02/26 03:46:43;;;;;;;1.00;0.73;;;;;;;-1.30;100.00;102004.66;5002764;28;20204;-69
2023/02/26 03:49:13;;;;;;;2.67;1.30;;;;;;;-1.31;100.00;102015.47;4982949;28;20210;-70
2023/02/26 03:51:41;;;;;;;3.83;1.07;;;;;;;-1.33;100.00;102016.94;4989641;28;20212;-68
2023/02/26 03:54:53;;;;;;;2.47;0.80;;;;;;;-1.37;100.00;102019.09;4983632;28;20200;-69
2023/02/26 03:57:48;;;;;;;3.60;1.10;;;;;;;-1.39;100.00;102018.94;5002785;28;20184;-70
2023/02/26 04:00:25;;;;;;;1.87;1.00;;;;;;;-1.43;100.00;102031.09;4985394;28;20187;-68
2023/02/26 04:02:54;;;;;;;4.73;0.87;;;;;;;-1.49;100.00;102028.97;4986127;28;20746;-71
2023/02/26 04:05:24;;;;;;;2.93;0.83;;;;;;;-1.50;100.00;102029.72;4975925;28;20193;-68
2023/02/26 04:07:49;;;;;;;1.83;0.93;;;;;;;-1.52;100.00;102040.38;5000253;28;20188;-68
2023/02/26 04:10:18;;;;;;;2.93;1.00;;;;;;;-1.59;100.00;102035.56;4985706;28;20211;-70
2023/02/26 04:12:44;;;;;;;3.30;1.27;;;;;;;-1.62;100.00;102051.25;4982781;28;20226;-69
2023/02/26 04:15:10;;;;;;;4.23;1.07;;;;;;;-1.61;100.00;102047.13;4985332;28;20203;-67
2023/02/26 04:17:36;;;;;;;4.20;0.97;;;;;;;-1.65;100.00;102055.13;4984927;28;20188;-69
2023/02/26 04:20:06;;;;;;;2.53;0.97;;;;;;;-1.65;100.00;102055.13;4986104;28;20187;-70
2023/02/26 04:22:33;;;;;;;1.53;0.90;;;;;;;-1.65;100.00;102055.13;4983596;28;20209;-69
2023/02/26 04:24:58;;;;;;;1.30;0.87;;;;;;;-1.68;100.00;102055.75;4988884;28;20199;-70
2023/02/26 04:27:24;;;;;;;2.53;1.10;;;;;;;-1.73;100.00;102059.50;4971853;28;20564;-69
2023/02/26 04:29:49;;;;;;;3.83;1.10;;;;;;;-1.74;100.00;102065.22;4988010;28;20283;-70
2023/02/26 04:32:15;;;;;;;3.03;1.20;;;;;;;-1.74;100.00;102055.19;4988121;28;20250;-68
2023/02/26 04:34:40;;;;;;;3.93;1.10;;;;;;;-1.73;100.00;102066.13;4984754;28;20219;-69
2023/02/26 04:37:06;;;;;;;3.40;1.00;;;;;;;-1.76;100.00;102073.38;4986277;28;20199;-71
2023/02/26 04:39:31;;;;;;;5.00;1.00;;;;;;;-1.75;100.00;102067.63;4988931;28;20231;-69
2023/02/26 04:41:57;;;;;;;2.73;1.13;;;;;;;-1.80;100.00;102073.84;4987396;28;20231;-70
2023/02/26 04:44:22;;;;;;;3.20;1.97;;;;;;;-1.83;100.00;102081.13;4987094;28;20241;-69
2023/02/26 04:46:48;;;;;;;4.50;1.00;;;;;;;-1.88;100.00;102082.38;4970963;28;20659;-69
2023/02/26 04:49:13;;;;;;;2.13;1.00;;;;;;;-1.87;100.00;102096.66;4984657;28;20187;-68
2023/02/26 04:51:42;;;;;;;3.33;1.00;;;;;;;-1.91;100.00;102095.53;4985429;28;20207;-69
2023/02/26 04:54:07;;;;;;;3.73;1.13;;;;;;;-1.94;100.00;102092.72;4984052;28;20535;-66
2023/02/26 04:56:33;;;;;;;3.47;1.00;;;;;;;-1.97;100.00;102094.97;4987164;28;20195;-69
2023/02/26 04:59:00;;;;;;;3.20;1.17;;;;;;;-1.96;100.00;102104.28;4986030;28;20616;-69
2023/02/26 05:01:30;;;;;;;5.03;1.00;;;;;;;-1.97;100.00;102104.13;4968176;28;20258;-68
2023/02/26 05:03:57;;;;;;;3.27;1.23;;;;;;;-1.95;100.00;102115.16;4980054;28;20216;-69
2023/02/26 05:06:22;;;;;;;5.03;1.20;;;;;;;-1.99;100.00;102110.63;4986074;28;20278;-70
2023/02/26 05:08:48;;;;;;;2.43;1.90;;;;;;;-2.04;100.00;102117.75;4985718;28;20221;-69
2023/02/26 05:11:13;;;;;;;2.63;1.00;;;;;;;-2.04;100.00;102121.88;4984580;28;20196;-69
2023/02/26 05:13:38;;;;;;;1.60;0.80;;;;;;;-2.05;100.00;102121.03;4986212;28;20196;-69
2023/02/26 05:16:05;;;;;;;2.27;1.00;;;;;;;-2.03;100.00;102123.63;4998022;28;20208;-68
2023/02/26 05:18:31;;;;;;;3.37;1.13;;;;;;;-2.02;100.00;102123.78;4974939;28;20196;-70
2023/02/26 05:20:57;;;;;;;5.53;1.93;;;;;;;-2.05;100.00;102123.53;4986631;28;20195;-69
2023/02/26 05:23:23;;;;;;;4.03;1.10;;;;;;;-2.01;100.00;102127.19;4986114;28;20254;-70
2023/02/26 05:25:49;;;;;;;2.87;0.90;;;;;;;-2.02;100.00;102127.94;4987543;28;20223;-69
2023/02/26 05:28:16;;;;;;;6.63;1.40;;;;;;;-1.98;100.00;102133.34;4987093;28;20219;-69
2023/02/26 05:30:41;;;;;;;2.40;0.80;;;;;;;-2.02;100.00;102137.97;4985557;28;20277;-69
2023/02/26 05:33:07;;;;;;;4.27;1.37;;;;;;;-2.05;100.00;102142.69;4987136;28;20211;-70
2023/02/26 05:35:33;;;;;;;4.63;1.03;;;;;;;-2.07;100.00;102144.19;4987503;28;20563;-70
2023/02/26 05:37:59;;;;;;;2.90;0.90;;;;;;;-2.12;100.00;102138.75;4986991;28;20625;-70
2023/02/26 05:40:24;;;;;;;2.67;1.10;;;;;;;-2.12;100.00;102145.41;4988102;28;20200;-69
2023/02/26 05:42:50;;;;;;;5.77;1.33;;;;;;;-2.13;100.00;102152.03;4987156;28;20223;-68
2023/02/26 05:45:16;;;;;;;5.67;1.40;;;;;;;-2.16;100.00;102155.91;4988056;28;20234;-69
2023/02/26 05:47:42;;;;;;;1.43;1.07;;;;;;;-2.18;100.00;102154.88;4985749;28;20191;-70
2023/02/26 05:50:08;;;;;;;2.23;0.90;;;;;;;-2.21;100.00;102157.13;4987868;28;20200;-69
2023/02/26 05:52:33;;;;;;;6.77;1.63;;;;;;;-2.22;100.00;102158.75;4988614;28;20582;-69
2023/02/26 05:54:59;;;;;;;5.43;1.20;;;;;;;-2.25;100.00;102165.13;4982931;28;20196;-68
2023/02/26 05:57:25;;;;;;;3.23;1.37;;;;;;;-2.22;100.00;102173.78;4984894;28;20204;-69
2023/02/26 05:59:50;;;;;;;3.70;1.17;;;;;;;-2.25;100.00;102168.47;4987202;28;20192;-70
2023/02/26 06:02:16;;;;;;;1.53;0.97;;;;;;;-2.24;100.00;102175.28;4983641;28;20236;-68
2023/02/26 06:04:42;;;;;;;3.67;1.10;;;;;;;-2.20;100.00;102173.94;4985627;28;20222;-67
2023/02/26 06:07:07;;;;;;;2.77;1.03;;;;;;;-2.18;100.00;102182.47;4991110;28;20207;-70
2023/02/26 06:09:32;;;;;;;6.57;1.10;;;;;;;-2.18;100.00;102189.97;4991724;28;20192;-70
2023/02/26 06:11:58;;;;;;;4.03;1.27;;;;;;;-2.20;100.00;102188.97;4988774;28;20270;-69
2023/02/26 06:14:23;;;;;;;6.17;1.33;;;;;;;-2.22;100.00;102193.84;4992066;28;20198;-70
2023/02/26 06:16:49;;;;;;;3.60;1.57;;;;;;;-2.23;100.00;102199.63;4992365;28;20662;-69
2023/02/26 06:19:14;;;;;;;4.17;0.87;;;;;;;-2.21;100.00;102202.28;4991347;28;20727;-68
2023/02/26 06:21:40;;;;;;;3.57;1.00;;;;;;;-2.21;100.00;102202.28;4988684;28;20314;-69
2023/02/26 06:24:05;;;;;;;4.27;0.90;;;;;;;-2.21;100.00;102210.66;4990405;28;20592;-69
2023/02/26 06:26:31;;;;;;;4.27;1.00;;;;;;;-2.19;100.00;102214.19;4988552;28;20198;-70
2023/02/26 06:28:56;;;;;;;2.33;0.93;;;;;;;-2.19;100.00;102218.31;4988733;28;20226;-67
2023/02/26 06:31:22;;;;;;;5.50;0.90;;;;;;;-2.18;100.00;102222.59;4988842;28;20338;-70
2023/02/26 06:33:48;;;;;;;2.90;0.87;;;;;;;-2.13;100.00;102226.41;4988272;28;20645;-70
2023/02/26 06:36:13;;;;;;;3.10;1.07;;;;;;;-2.12;100.00;102234.06;4987949;28;20672;-71
2023/02/26 06:38:39;;;;;;;1.30;0.87;;;;;;;-2.12;100.00;102236.56;4988222;28;20560;-69
2023/02/26 06:41:04;;;;;;;3.53;0.90;;;;;;;-2.10;100.00;102241.72;4990491;28;20541;-67
2023/02/26 06:43:30;;;;;;;2.93;0.87;;;;;;;-2.07;100.00;102240.38;4991379;28;20230;-69
2023/02/26 06:45:57;;;;;;;3.20;1.33;;;;;;;-2.07;100.00;102250.41;4988735;28;20235;-70
2023/02/26 06:48:23;;;;;;;5.43;1.17;;;;;;;-2.04;100.00;102259.84;4991341;28;20249;-70
2023/02/26 06:50:48;;;;;;;5.23;1.43;;;;;;;-2.03;100.00;102264.09;4990848;28;20791;-70
2023/02/26 06:53:13;;;;;;;4.30;1.50;;;;;;;-2.02;100.00;102266.75;4989431;28;20265;-68
2023/02/26 06:55:46;;;;;;;4.53;1.60;;;;;;;-1.99;100.00;102271.19;4989508;28;20208;-69
2023/02/26 06:58:11;;;;;;;36.30;22.43;;;;;;;-1.97;100.00;102279.75;4990135;28;20688;-69
2023/02/26 07:00:38;;;;;;;8.50;7.10;;;;;;;-1.94;100.00;102285.91;4983745;28;20282;-71
2023/02/26 07:03:04;;;;;;;7.43;3.50;;;;;;;-1.90;100.00;102287.97;4985979;28;20265;-71
2023/02/26 07:05:29;;;;;;;2.83;1.50;;;;;;;-1.87;100.00;102280.72;4978468;28;20196;-70
2023/02/26 07:07:55;;;;;;;4.97;1.57;;;;;;;-1.85;100.00;102286.75;4984328;28;20218;-70
2023/02/26 07:10:20;;;;;;;1.60;0.90;;;;;;;-1.75;100.00;102291.00;4986302;28;20188;-69
2023/02/26 07:12:47;;;;;;;1.77;1.00;;;;;;;-1.71;100.00;102293.91;4985532;28;20207;-71
2023/02/26 07:15:13;;;;;;;3.13;1.40;;;;;;;-1.63;100.00;102304.63;4989300;28;20278;-69
2023/02/26 07:17:39;;;;;;;2.57;1.10;;;;;;;-1.56;100.00;102297.78;4989876;28;20287;-71
2023/02/26 07:20:08;;;;;;;2.93;1.43;;;;;;;-1.44;100.00;102298.00;4987510;28;20215;-71
2023/02/26 07:22:35;;;;;;;3.27;1.20;;;;;;;-1.34;100.00;102303.09;4989118;28;20224;-70
2023/02/26 07:25:01;;;;;;;2.70;0.80;;;;;;;-1.23;100.00;102309.97;4986542;28;20274;-71
2023/02/26 07:27:28;;;;;;;3.87;1.00;;;;;;;-1.13;100.00;102310.06;4987667;28;20192;-70
2023/02/26 07:29:54;;;;;;;4.33;2.10;;;;;;;-1.00;100.00;102320.44;4986786;28;20234;-70
2023/02/26 07:32:20;;;;;;;1.43;1.07;;;;;;;-0.87;100.00;102319.13;4990040;28;20350;-69
2023/02/26 07:34:45;;;;;;;1.03;0.90;;;;;;;-0.67;100.00;102320.88;4990559;28;20194;-70
2023/02/26 07:37:11;;;;;;;3.43;1.00;;;;;;;-0.47;100.00;102316.81;4988730;28;20701;-70
2023/02/26 07:39:36;;;;;;;3.03;1.00;;;;;;;-0.31;100.00;102324.91;4984724;28;20303;-70
2023/02/26 07:42:01;;;;;;;3.83;1.20;;;;;;;-0.13;100.00;102333.19;4989289;28;20211;-71
2023/02/26 07:44:27;;;;;;;5.80;3.07;;;;;;;0.03;100.00;102337.13;4986468;28;20188;-70
2023/02/26 07:46:52;;;;;;;3.53;2.10;;;;;;;0.16;100.00;102336.53;4987219;28;20740;-70
2023/02/26 07:49:18;;;;;;;2.97;1.50;;;;;;;0.30;100.00;102338.56;4990003;28;20685;-70
2023/02/26 07:51:44;;;;;;;5.47;1.50;;;;;;;0.44;100.00;102335.53;4989496;28;20354;-70
2023/02/26 07:54:12;;;;;;;2.80;1.50;;;;;;;0.62;100.00;102342.09;4989632;28;20665;-70
2023/02/26 07:56:38;;;;;;;3.20;1.57;;;;;;;0.71;100.00;102335.31;4987185;28;20207;-69
2023/02/26 07:59:04;;;;;;;4.47;1.60;;;;;;;0.88;100.00;102344.25;4987873;28;20269;-71
2023/02/26 08:01:30;;;;;;;2.73;1.73;;;;;;;1.08;100.00;102344.19;4989243;28;20319;-71
2023/02/26 08:03:55;;;;;;;5.30;2.30;;;;;;;1.23;100.00;102348.84;4988766;28;20251;-69
2023/02/26 08:06:21;;;;;;;11.90;6.30;;;;;;;1.34;100.00;102345.56;4986526;28;20192;-69
2023/02/26 08:08:46;;;;;;;8.90;3.67;;;;;;;1.54;100.00;102347.13;4988528;28;20211;-70
2023/02/26 08:11:11;;;;;;;3.70;1.40;;;;;;;1.71;100.00;102351.84;4986354;28;20274;-69
2023/02/26 08:13:37;;;;;;;2.77;1.10;;;;;;;1.90;100.00;102355.94;4985272;28;20211;-71
2023/02/26 08:16:02;;;;;;;3.03;1.00;;;;;;;2.06;100.00;102356.34;4987864;28;20226;-71
2023/02/26 08:18:28;;;;;;;3.97;1.30;;;;;;;2.35;100.00;102341.75;4988226;28;20217;-69
2023/02/26 08:20:53;;;;;;;3.67;1.30;;;;;;;2.47;100.00;102351.91;4989293;28;20559;-71
2023/02/26 08:23:19;;;;;;;2.90;1.10;;;;;;;2.59;100.00;102346.16;4989619;28;20283;-72
2023/02/26 08:25:44;;;;;;;3.30;1.20;;;;;;;2.75;100.00;102348.19;4988648;28;20273;-70
2023/02/26 08:28:10;;;;;;;2.87;1.27;;;;;;;2.94;100.00;102361.41;4983996;28;20286;-71
2023/02/26 08:30:36;;;;;;;4.33;1.33;;;;;;;3.20;100.00;102360.00;4989103;28;20732;-71
2023/02/26 08:33:01;;;;;;;2.77;1.33;;;;;;;3.31;100.00;102363.34;4988004;28;20219;-72
2023/02/26 08:35:26;;;;;;;5.53;1.60;;;;;;;3.52;100.00;102359.78;4987780;28;20280;-69
2023/02/26 08:37:53;;;;;;;4.57;1.57;;;;;;;3.70;100.00;102363.63;4985617;28;20691;-71
2023/02/26 08:40:19;;;;;;;3.80;1.40;;;;;;;3.88;100.00;102370.00;4988730;28;20846;-72
2023/02/26 08:42:45;;;;;;;4.93;1.50;;;;;;;4.03;100.00;102373.59;4988109;28;20219;-72
2023/02/26 08:45:10;;;;;;;3.83;1.33;;;;;;;4.22;100.00;102382.59;4986651;28;20195;-71
2023/02/26 08:47:36;;;;;;;2.80;1.20;;;;;;;4.41;100.00;102383.06;4987742;28;20668;-70
2023/02/26 08:50:03;;;;;;;3.33;1.30;;;;;;;4.55;100.00;102392.50;4987987;28;20560;-71
2023/02/26 08:52:29;;;;;;;3.43;1.20;;;;;;;4.79;100.00;102388.22;4975623;28;20215;-71
2023/02/26 08:54:54;;;;;;;4.63;1.40;;;;;;;4.94;100.00;102394.28;4987388;28;20238;-70
2023/02/26 08:57:20;;;;;;;4.60;1.50;;;;;;;5.07;100.00;102402.81;4985437;28;20203;-71
2023/02/26 08:59:46;;;;;;;2.30;1.00;;;;;;;5.21;100.00;102401.19;4985435;28;20277;-71
2023/02/26 09:02:12;;;;;;;2.87;1.13;;;;;;;5.55;100.00;102403.47;4987306;28;20211;-70
2023/02/26 09:04:38;;;;;;;3.50;1.60;;;;;;;6.00;100.00;102408.97;4988454;28;20231;-71
2023/02/26 09:07:03;;;;;;;4.60;1.10;;;;;;;6.48;98.51;102403.44;4992443;28;20205;-71
2023/02/26 09:09:29;;;;;;;5.77;2.77;;;;;;;6.70;93.85;102407.41;4995818;28;20254;-69
2023/02/26 09:11:54;;;;;;;2.90;1.43;;;;;;;7.05;91.85;102410.34;4987909;28;20225;-72
2023/02/26 09:14:20;;;;;;;1.60;1.03;;;;;;;7.59;88.37;102405.88;4993620;28;20279;-69
2023/02/26 09:16:45;;;;;;;3.23;1.20;;;;;;;8.32;78.46;102411.69;4989809;28;20223;-72
2023/02/26 09:19:11;;;;;;;3.37;1.50;;;;;;;11.71;56.54;102396.25;4991728;28;20241;-72
2023/02/26 09:21:37;;;;;;;3.97;1.55;;;;;;;14.57;44.95;102397.63;4990973;28;20226;-70
2023/02/26 09:24:02;;;;;;;2.97;1.40;;;;;;;16.26;39.35;102382.94;4993349;28;20222;-69
2023/02/26 09:26:28;;;;;;;2.45;1.10;;;;;;;16.74;37.16;102390.84;4989429;28;20278;-71
2023/02/26 09:28:53;;;;;;;2.92;1.20;;;;;;;18.00;36.00;102390.44;4994357;28;20679;-70
2023/02/26 09:31:19;;;;;;;1.90;1.05;;;;;;;18.97;32.98;102381.25;4984340;28;20654;-70
2023/02/26 09:33:44;;;;;;;1.60;0.98;;;;;;;19.29;32.19;102386.78;4991053;28;20370;-71
2023/02/26 09:36:09;;;;;;;1.88;1.10;;;;;;;18.81;32.21;102392.38;4989845;28;20588;-71
2023/02/26 09:38:35;;;;;;;1.80;1.00;;;;;;;20.18;30.02;102396.13;4991621;28;20196;-70
2023/02/26 09:41:03;;;;;;;2.92;1.20;;;;;;;20.15;30.18;102403.91;4988673;28;20286;-71
2023/02/26 09:43:50;;;;;;;2.55;1.17;;;;;;;20.78;29.78;102399.81;4995567;28;20211;-71
2023/02/26 09:46:39;;;;;;;2.85;1.17;;;;;;;21.17;28.66;102404.28;4994422;28;20250;-71
2023/02/26 09:49:33;;;;;;;2.80;1.00;;;;;;;22.10;28.31;102397.28;4995163;28;20255;-71
2023/02/26 09:52:24;;;;;;;2.25;1.08;;;;;;;21.99;27.26;102411.22;4989685;28;20715;-71
2023/02/26 09:54:59;;;;;;;1.83;1.25;;;;;;;22.71;26.11;102397.94;4991158;28;20231;-70
2023/02/26 09:57:38;;;;;;;1.58;1.10;;;;;;;23.29;25.56;102404.53;4952033;28;20942;-69
2023/02/26 10:00:13;;;;;;;2.25;1.30;;;;;;;23.25;25.45;102404.59;4975059;28;20192;-69
2023/02/26 10:02:58;;;;;;;1.75;1.17;;;;;;;23.12;24.98;102408.13;4974052;28;20239;-67
2023/02/26 10:05:40;;;;;;;2.53;1.00;;;;;;;25.08;22.77;102398.13;4971282;28;20327;-68
2023/02/26 10:08:15;;;;;;;1.33;1.00;;;;;;;23.92;23.17;102397.88;4967826;28;20601;-68
2023/02/26 10:11:07;;;;;;;1.42;1.00;;;;;;;24.26;23.83;102394.88;4978766;28;20195;-69
2023/02/26 10:13:38;;;;;;;1.40;1.00;;;;;;;25.98;21.80;102394.03;4970278;28;20200;-69
2023/02/26 10:16:19;;;;;;;3.40;2.88;;;;;;;24.97;21.64;102400.06;4975597;28;20581;-70
2023/02/26 10:18:51;;;;;;;3.38;1.83;;;;;;;24.49;23.06;102405.09;4972451;28;20258;-72
2023/02/26 10:21:38;;;;;;;2.22;1.20;;;;;;;24.04;23.32;102405.63;4975939;28;20209;-73
2023/02/26 10:24:12;;;;;;;1.75;1.40;;;;;;;26.37;21.20;102389.69;4970930;28;20274;-70
2023/02/26 10:26:45;;;;;;;2.58;1.77;;;;;;;25.66;21.93;102408.56;4962557;28;20221;-70
2023/02/26 10:29:20;;;;;;;2.10;1.00;;;;;;;25.61;21.84;102405.16;4963176;28;20200;-69
2023/02/26 10:32:01;;;;;;;1.63;1.20;;;;;;;24.33;23.07;102420.13;4966328;28;20270;-72
2023/02/26 10:34:55;;;;;;;2.47;1.27;;;;;;;23.97;22.89;102420.53;4972371;28;20198;-71
2023/02/26 10:38:03;;;;;;;1.33;1.20;;;;;;;24.96;22.29;102414.03;4969107;28;20216;-72
2023/02/26 10:40:49;;;;;;;6.03;5.63;;;;;;;25.49;22.04;102418.50;4969783;28;20200;-70
2023/02/26 10:43:28;;;;;;;1.25;0.90;;;;;;;24.68;22.31;102414.47;4966222;28;20812;-72
2023/02/26 10:46:01;;;;;;;0.75;0.75;;;;;;;26.05;22.35;102414.00;4969864;28;20204;-71
2023/02/26 10:49:02;;;;;;;1.63;1.48;;;;;;;25.69;21.31;102435.63;4965082;28;20200;-70
2023/02/26 10:51:35;;;;;;;1.95;1.70;;;;;;;23.65;23.03;102446.09;4971336;28;20759;-70
2023/02/26 10:54:11;;;;;;;1.83;1.30;;;;;;;25.41;21.59;102439.63;4975114;28;20196;-72
2023/02/26 10:56:37;;;;;;;2.22;1.55;;;;;;;22.18;24.49;102444.22;4977698;28;20211;-71
2023/02/26 10:59:02;;;;;;;1.57;1.47;;;;;;;17.36;28.71;102462.78;4974802;28;20203;-72
2023/02/26 11:01:30;;;;;;;2.15;1.90;;;;;;;22.91;23.64;102437.88;4977642;28;20217;-72
2023/02/26 11:03:59;;;;;;;2.58;1.67;;;;;;;23.11;22.97;102453.44;4974283;28;20500;-71
2023/02/26 11:06:48;;;;;;;2.43;1.73;;;;;;;17.77;27.54;102472.19;4952535;28;20652;-71
2023/02/26 11:09:36;;;;;;;5.20;3.40;;;;;;;20.06;27.17;102458.44;4971180;28;20201;-69
2023/02/26 11:12:16;;;;;;;1.60;1.23;;;;;;;18.08;29.74;102462.28;4971674;28;20217;-69
2023/02/26 11:14:43;;;;;;;3.60;3.30;;;;;;;23.94;23.28;102451.09;4992044;28;20219;-69
2023/02/26 11:17:22;;;;;;;2.93;1.80;;;;;;;17.75;29.52;102489.41;4985151;28;20200;-70
2023/02/26 11:20:18;;;;;;;4.40;3.80;;;;;;;23.31;24.46;102449.88;4972768;28;20226;-70
2023/02/26 11:22:48;;;;;;;2.35;2.00;;;;;;;24.39;23.35;102448.84;4969047;28;20223;-71
2023/02/26 11:25:18;;;;;;;3.65;1.42;;;;;;;24.02;23.43;102454.50;4972479;28;20193;-71
2023/02/26 11:27:47;;;;;;;2.63;2.00;;;;;;;25.30;21.90;102453.78;4966826;28;20582;-71
2023/02/26 11:30:23;;;;;;;3.90;3.35;;;;;;;24.73;23.62;102451.97;4973719;28;20673;-71
2023/02/26 11:32:51;;;;;;;1.90;1.73;;;;;;;20.85;25.56;102474.50;4969691;28;20947;-70
2023/02/26 11:35:19;;;;;;;2.50;1.93;;;;;;;16.83;31.89;102490.25;4971951;28;20271;-72
2023/02/26 11:37:48;;;;;;;1.70;1.57;;;;;;;17.26;30.59;102492.81;4968787;28;20226;-71